<?xml version="1.0" encoding="UTF-8" standalone="no" ?>
<gpx xmlns="http://www.topografix.com/GPX/1/1" xmlns:xsi="http://www.w3.org/2001/XMLSchema-instance" xsi:schemaLocation="http://www.topografix.com/GPX/1/1 http://www.topografix.com/GPX/1/1/gpx.xsd" version="1.1" creator="VisuGPX - https://www.visugpx.com">
  <metadata>
    <name>Pradelles Langogne</name>
    <desc><![CDATA[8 mai 2016]]></desc>
  </metadata>
  <trk>
    <name><![CDATA[STEV 3-20168:01:33 AM]]></name>
    <trkseg>
      <trkpt lat="44.76947" lon="3.8827">
        <ele>1200.34</ele>
        <time>2016-05-08T06:34:51Z</time>
      </trkpt>
      <trkpt lat="44.76947" lon="3.88272">
        <ele>1196.5</ele>
        <time>2016-05-08T06:34:58Z</time>
      </trkpt>
      <trkpt lat="44.76948" lon="3.88273">
        <ele>1196.98</ele>
        <time>2016-05-08T06:34:59Z</time>
      </trkpt>
      <trkpt lat="44.76946" lon="3.88277">
        <ele>1193.61</ele>
        <time>2016-05-08T06:35:09Z</time>
      </trkpt>
      <trkpt lat="44.76948" lon="3.88281">
        <ele>1189.29</ele>
        <time>2016-05-08T06:35:35Z</time>
      </trkpt>
      <trkpt lat="44.76948" lon="3.88281">
        <ele>1190.25</ele>
        <time>2016-05-08T06:35:40Z</time>
      </trkpt>
      <trkpt lat="44.76948" lon="3.88281">
        <ele>1190.25</ele>
        <time>2016-05-08T06:36:00Z</time>
      </trkpt>
      <trkpt lat="44.76945" lon="3.88277">
        <ele>1190.73</ele>
        <time>2016-05-08T06:37:12Z</time>
      </trkpt>
      <trkpt lat="44.76944" lon="3.88276">
        <ele>1189.29</ele>
        <time>2016-05-08T06:37:16Z</time>
      </trkpt>
      <trkpt lat="44.76943" lon="3.88275">
        <ele>1188.81</ele>
        <time>2016-05-08T06:37:21Z</time>
      </trkpt>
      <trkpt lat="44.76938" lon="3.88264">
        <ele>1187.85</ele>
        <time>2016-05-08T06:38:36Z</time>
      </trkpt>
      <trkpt lat="44.76932" lon="3.88262">
        <ele>1187.85</ele>
        <time>2016-05-08T06:38:44Z</time>
      </trkpt>
      <trkpt lat="44.76924" lon="3.88255">
        <ele>1184.96</ele>
        <time>2016-05-08T06:38:54Z</time>
      </trkpt>
      <trkpt lat="44.76923" lon="3.88254">
        <ele>1184.96</ele>
        <time>2016-05-08T06:38:55Z</time>
      </trkpt>
      <trkpt lat="44.76921" lon="3.88249">
        <ele>1183.52</ele>
        <time>2016-05-08T06:39:00Z</time>
      </trkpt>
      <trkpt lat="44.76918" lon="3.88239">
        <ele>1186.4</ele>
        <time>2016-05-08T06:39:07Z</time>
      </trkpt>
      <trkpt lat="44.76918" lon="3.88235">
        <ele>1184</ele>
        <time>2016-05-08T06:39:12Z</time>
      </trkpt>
      <trkpt lat="44.76919" lon="3.88231">
        <ele>1183.04</ele>
        <time>2016-05-08T06:39:15Z</time>
      </trkpt>
      <trkpt lat="44.7691" lon="3.88226">
        <ele>1179.67</ele>
        <time>2016-05-08T06:39:29Z</time>
      </trkpt>
      <trkpt lat="44.76905" lon="3.88224">
        <ele>1177.75</ele>
        <time>2016-05-08T06:39:33Z</time>
      </trkpt>
      <trkpt lat="44.76889" lon="3.88218">
        <ele>1177.27</ele>
        <time>2016-05-08T06:39:48Z</time>
      </trkpt>
      <trkpt lat="44.76884" lon="3.88225">
        <ele>1176.31</ele>
        <time>2016-05-08T06:39:54Z</time>
      </trkpt>
      <trkpt lat="44.76876" lon="3.88243">
        <ele>1175.35</ele>
        <time>2016-05-08T06:40:07Z</time>
      </trkpt>
      <trkpt lat="44.76861" lon="3.88251">
        <ele>1175.35</ele>
        <time>2016-05-08T06:40:27Z</time>
      </trkpt>
      <trkpt lat="44.7686" lon="3.88251">
        <ele>1173.43</ele>
        <time>2016-05-08T06:40:44Z</time>
      </trkpt>
      <trkpt lat="44.7686" lon="3.88251">
        <ele>1173.91</ele>
        <time>2016-05-08T06:40:52Z</time>
      </trkpt>
      <trkpt lat="44.76852" lon="3.88255">
        <ele>1172.47</ele>
        <time>2016-05-08T06:41:08Z</time>
      </trkpt>
      <trkpt lat="44.76834" lon="3.88255">
        <ele>1172.95</ele>
        <time>2016-05-08T06:41:21Z</time>
      </trkpt>
      <trkpt lat="44.76816" lon="3.88256">
        <ele>1173.91</ele>
        <time>2016-05-08T06:41:33Z</time>
      </trkpt>
      <trkpt lat="44.76813" lon="3.88257">
        <ele>1170.54</ele>
        <time>2016-05-08T06:41:35Z</time>
      </trkpt>
      <trkpt lat="44.76812" lon="3.88257">
        <ele>1169.58</ele>
        <time>2016-05-08T06:41:37Z</time>
      </trkpt>
      <trkpt lat="44.7681" lon="3.88258">
        <ele>1171.02</ele>
        <time>2016-05-08T06:41:42Z</time>
      </trkpt>
      <trkpt lat="44.76808" lon="3.88257">
        <ele>1169.1</ele>
        <time>2016-05-08T06:41:51Z</time>
      </trkpt>
      <trkpt lat="44.76797" lon="3.88263">
        <ele>1166.22</ele>
        <time>2016-05-08T06:42:01Z</time>
      </trkpt>
      <trkpt lat="44.76781" lon="3.88276">
        <ele>1163.33</ele>
        <time>2016-05-08T06:42:15Z</time>
      </trkpt>
      <trkpt lat="44.76776" lon="3.88284">
        <ele>1166.7</ele>
        <time>2016-05-08T06:42:21Z</time>
      </trkpt>
      <trkpt lat="44.76776" lon="3.88287">
        <ele>1166.22</ele>
        <time>2016-05-08T06:42:22Z</time>
      </trkpt>
      <trkpt lat="44.76775" lon="3.88289">
        <ele>1164.77</ele>
        <time>2016-05-08T06:42:23Z</time>
      </trkpt>
      <trkpt lat="44.76766" lon="3.88302">
        <ele>1162.85</ele>
        <time>2016-05-08T06:42:34Z</time>
      </trkpt>
      <trkpt lat="44.76747" lon="3.88305">
        <ele>1162.37</ele>
        <time>2016-05-08T06:42:52Z</time>
      </trkpt>
      <trkpt lat="44.76744" lon="3.88308">
        <ele>1159.01</ele>
        <time>2016-05-08T06:42:56Z</time>
      </trkpt>
      <trkpt lat="44.76743" lon="3.88309">
        <ele>1158.53</ele>
        <time>2016-05-08T06:42:57Z</time>
      </trkpt>
      <trkpt lat="44.76741" lon="3.8831">
        <ele>1157.08</ele>
        <time>2016-05-08T06:42:59Z</time>
      </trkpt>
      <trkpt lat="44.76739" lon="3.88312">
        <ele>1153.72</ele>
        <time>2016-05-08T06:43:02Z</time>
      </trkpt>
      <trkpt lat="44.76736" lon="3.88314">
        <ele>1157.08</ele>
        <time>2016-05-08T06:43:05Z</time>
      </trkpt>
      <trkpt lat="44.7673" lon="3.88318">
        <ele>1164.29</ele>
        <time>2016-05-08T06:43:10Z</time>
      </trkpt>
      <trkpt lat="44.76729" lon="3.88319">
        <ele>1162.85</ele>
        <time>2016-05-08T06:43:11Z</time>
      </trkpt>
      <trkpt lat="44.76728" lon="3.88319">
        <ele>1156.12</ele>
        <time>2016-05-08T06:43:12Z</time>
      </trkpt>
      <trkpt lat="44.76727" lon="3.88319">
        <ele>1158.53</ele>
        <time>2016-05-08T06:43:13Z</time>
      </trkpt>
      <trkpt lat="44.7672" lon="3.88323">
        <ele>1161.41</ele>
        <time>2016-05-08T06:43:21Z</time>
      </trkpt>
      <trkpt lat="44.76717" lon="3.88323">
        <ele>1158.53</ele>
        <time>2016-05-08T06:43:28Z</time>
      </trkpt>
      <trkpt lat="44.76713" lon="3.88321">
        <ele>1155.64</ele>
        <time>2016-05-08T06:43:35Z</time>
      </trkpt>
      <trkpt lat="44.76712" lon="3.88323">
        <ele>1151.32</ele>
        <time>2016-05-08T06:43:40Z</time>
      </trkpt>
      <trkpt lat="44.76711" lon="3.88323">
        <ele>1151.8</ele>
        <time>2016-05-08T06:43:41Z</time>
      </trkpt>
      <trkpt lat="44.76708" lon="3.88323">
        <ele>1154.2</ele>
        <time>2016-05-08T06:43:48Z</time>
      </trkpt>
      <trkpt lat="44.76704" lon="3.88324">
        <ele>1149.87</ele>
        <time>2016-05-08T06:43:50Z</time>
      </trkpt>
      <trkpt lat="44.76703" lon="3.88325">
        <ele>1151.32</ele>
        <time>2016-05-08T06:43:51Z</time>
      </trkpt>
      <trkpt lat="44.76696" lon="3.88326">
        <ele>1152.76</ele>
        <time>2016-05-08T06:43:54Z</time>
      </trkpt>
      <trkpt lat="44.76675" lon="3.88325">
        <ele>1151.32</ele>
        <time>2016-05-08T06:44:06Z</time>
      </trkpt>
      <trkpt lat="44.76664" lon="3.88327">
        <ele>1148.91</ele>
        <time>2016-05-08T06:44:15Z</time>
      </trkpt>
      <trkpt lat="44.7665" lon="3.8832">
        <ele>1150.35</ele>
        <time>2016-05-08T06:44:28Z</time>
      </trkpt>
      <trkpt lat="44.76645" lon="3.88313">
        <ele>1150.35</ele>
        <time>2016-05-08T06:44:33Z</time>
      </trkpt>
      <trkpt lat="44.76629" lon="3.88303">
        <ele>1151.32</ele>
        <time>2016-05-08T06:44:47Z</time>
      </trkpt>
      <trkpt lat="44.76614" lon="3.88293">
        <ele>1149.87</ele>
        <time>2016-05-08T06:45:03Z</time>
      </trkpt>
      <trkpt lat="44.76607" lon="3.88288">
        <ele>1149.87</ele>
        <time>2016-05-08T06:45:10Z</time>
      </trkpt>
      <trkpt lat="44.76594" lon="3.88278">
        <ele>1149.39</ele>
        <time>2016-05-08T06:45:27Z</time>
      </trkpt>
      <trkpt lat="44.76591" lon="3.88277">
        <ele>1148.43</ele>
        <time>2016-05-08T06:45:31Z</time>
      </trkpt>
      <trkpt lat="44.76582" lon="3.8827">
        <ele>1146.03</ele>
        <time>2016-05-08T06:45:39Z</time>
      </trkpt>
      <trkpt lat="44.76578" lon="3.88268">
        <ele>1148.43</ele>
        <time>2016-05-08T06:45:43Z</time>
      </trkpt>
      <trkpt lat="44.76569" lon="3.88262">
        <ele>1147.47</ele>
        <time>2016-05-08T06:45:51Z</time>
      </trkpt>
      <trkpt lat="44.76564" lon="3.8826">
        <ele>1146.03</ele>
        <time>2016-05-08T06:46:04Z</time>
      </trkpt>
      <trkpt lat="44.76563" lon="3.88259">
        <ele>1146.51</ele>
        <time>2016-05-08T06:47:02Z</time>
      </trkpt>
      <trkpt lat="44.76563" lon="3.88259">
        <ele>1145.55</ele>
        <time>2016-05-08T06:47:04Z</time>
      </trkpt>
      <trkpt lat="44.76563" lon="3.88258">
        <ele>1142.18</ele>
        <time>2016-05-08T06:47:07Z</time>
      </trkpt>
      <trkpt lat="44.76563" lon="3.88258">
        <ele>1145.55</ele>
        <time>2016-05-08T06:47:09Z</time>
      </trkpt>
      <trkpt lat="44.76563" lon="3.88258">
        <ele>1143.63</ele>
        <time>2016-05-08T06:47:32Z</time>
      </trkpt>
      <trkpt lat="44.76563" lon="3.88258">
        <ele>1145.55</ele>
        <time>2016-05-08T06:47:37Z</time>
      </trkpt>
      <trkpt lat="44.76557" lon="3.88253">
        <ele>1143.63</ele>
        <time>2016-05-08T06:47:42Z</time>
      </trkpt>
      <trkpt lat="44.76542" lon="3.88244">
        <ele>1141.7</ele>
        <time>2016-05-08T06:47:57Z</time>
      </trkpt>
      <trkpt lat="44.76528" lon="3.88237">
        <ele>1141.22</ele>
        <time>2016-05-08T06:48:11Z</time>
      </trkpt>
      <trkpt lat="44.76509" lon="3.88225">
        <ele>1139.3</ele>
        <time>2016-05-08T06:48:27Z</time>
      </trkpt>
      <trkpt lat="44.76493" lon="3.88216">
        <ele>1137.38</ele>
        <time>2016-05-08T06:48:41Z</time>
      </trkpt>
      <trkpt lat="44.76483" lon="3.88211">
        <ele>1135.94</ele>
        <time>2016-05-08T06:48:49Z</time>
      </trkpt>
      <trkpt lat="44.76468" lon="3.88203">
        <ele>1134.97</ele>
        <time>2016-05-08T06:49:02Z</time>
      </trkpt>
      <trkpt lat="44.7645" lon="3.88195">
        <ele>1133.05</ele>
        <time>2016-05-08T06:49:17Z</time>
      </trkpt>
      <trkpt lat="44.76432" lon="3.88189">
        <ele>1132.09</ele>
        <time>2016-05-08T06:49:31Z</time>
      </trkpt>
      <trkpt lat="44.76415" lon="3.88181">
        <ele>1127.76</ele>
        <time>2016-05-08T06:49:44Z</time>
      </trkpt>
      <trkpt lat="44.76414" lon="3.8818">
        <ele>1128.24</ele>
        <time>2016-05-08T06:49:45Z</time>
      </trkpt>
      <trkpt lat="44.76405" lon="3.88177">
        <ele>1130.65</ele>
        <time>2016-05-08T06:49:52Z</time>
      </trkpt>
      <trkpt lat="44.76385" lon="3.8817">
        <ele>1128.73</ele>
        <time>2016-05-08T06:50:08Z</time>
      </trkpt>
      <trkpt lat="44.76373" lon="3.88166">
        <ele>1127.28</ele>
        <time>2016-05-08T06:50:19Z</time>
      </trkpt>
      <trkpt lat="44.76367" lon="3.88163">
        <ele>1127.76</ele>
        <time>2016-05-08T06:50:24Z</time>
      </trkpt>
      <trkpt lat="44.76361" lon="3.8816">
        <ele>1127.76</ele>
        <time>2016-05-08T06:50:29Z</time>
      </trkpt>
      <trkpt lat="44.76344" lon="3.88149">
        <ele>1125.84</ele>
        <time>2016-05-08T06:50:45Z</time>
      </trkpt>
      <trkpt lat="44.76337" lon="3.88143">
        <ele>1122.96</ele>
        <time>2016-05-08T06:50:52Z</time>
      </trkpt>
      <trkpt lat="44.76323" lon="3.88132">
        <ele>1122.48</ele>
        <time>2016-05-08T06:51:05Z</time>
      </trkpt>
      <trkpt lat="44.76306" lon="3.88118">
        <ele>1122.48</ele>
        <time>2016-05-08T06:51:21Z</time>
      </trkpt>
      <trkpt lat="44.76294" lon="3.88105">
        <ele>1118.63</ele>
        <time>2016-05-08T06:51:34Z</time>
      </trkpt>
      <trkpt lat="44.76293" lon="3.88104">
        <ele>1118.63</ele>
        <time>2016-05-08T06:51:35Z</time>
      </trkpt>
      <trkpt lat="44.76276" lon="3.88091">
        <ele>1120.07</ele>
        <time>2016-05-08T06:51:50Z</time>
      </trkpt>
      <trkpt lat="44.76264" lon="3.8808">
        <ele>1118.15</ele>
        <time>2016-05-08T06:52:02Z</time>
      </trkpt>
      <trkpt lat="44.76249" lon="3.88066">
        <ele>1116.71</ele>
        <time>2016-05-08T06:52:16Z</time>
      </trkpt>
      <trkpt lat="44.76246" lon="3.88064">
        <ele>1114.31</ele>
        <time>2016-05-08T06:52:19Z</time>
      </trkpt>
      <trkpt lat="44.76244" lon="3.88062">
        <ele>1115.27</ele>
        <time>2016-05-08T06:52:21Z</time>
      </trkpt>
      <trkpt lat="44.76228" lon="3.88048">
        <ele>1114.79</ele>
        <time>2016-05-08T06:52:37Z</time>
      </trkpt>
      <trkpt lat="44.76211" lon="3.88032">
        <ele>1112.38</ele>
        <time>2016-05-08T06:52:53Z</time>
      </trkpt>
      <trkpt lat="44.76204" lon="3.88026">
        <ele>1111.9</ele>
        <time>2016-05-08T06:53:00Z</time>
      </trkpt>
      <trkpt lat="44.7619" lon="3.88012">
        <ele>1109.98</ele>
        <time>2016-05-08T06:53:14Z</time>
      </trkpt>
      <trkpt lat="44.76177" lon="3.87995">
        <ele>1108.06</ele>
        <time>2016-05-08T06:53:29Z</time>
      </trkpt>
      <trkpt lat="44.7617" lon="3.87978">
        <ele>1105.17</ele>
        <time>2016-05-08T06:53:41Z</time>
      </trkpt>
      <trkpt lat="44.76161" lon="3.87956">
        <ele>1102.77</ele>
        <time>2016-05-08T06:53:56Z</time>
      </trkpt>
      <trkpt lat="44.76154" lon="3.87934">
        <ele>1102.77</ele>
        <time>2016-05-08T06:54:11Z</time>
      </trkpt>
      <trkpt lat="44.76152" lon="3.87928">
        <ele>1101.81</ele>
        <time>2016-05-08T06:54:15Z</time>
      </trkpt>
      <trkpt lat="44.76145" lon="3.87916">
        <ele>1097.96</ele>
        <time>2016-05-08T06:54:27Z</time>
      </trkpt>
      <trkpt lat="44.76145" lon="3.87916">
        <ele>1098.92</ele>
        <time>2016-05-08T06:54:28Z</time>
      </trkpt>
      <trkpt lat="44.76144" lon="3.87915">
        <ele>1098.92</ele>
        <time>2016-05-08T06:54:29Z</time>
      </trkpt>
      <trkpt lat="44.7614" lon="3.87912">
        <ele>1100.37</ele>
        <time>2016-05-08T06:54:33Z</time>
      </trkpt>
      <trkpt lat="44.76133" lon="3.87894">
        <ele>1098.44</ele>
        <time>2016-05-08T06:54:48Z</time>
      </trkpt>
      <trkpt lat="44.76132" lon="3.87888">
        <ele>1097.48</ele>
        <time>2016-05-08T06:54:53Z</time>
      </trkpt>
      <trkpt lat="44.76124" lon="3.87867">
        <ele>1096.04</ele>
        <time>2016-05-08T06:55:10Z</time>
      </trkpt>
      <trkpt lat="44.76121" lon="3.87861">
        <ele>1095.08</ele>
        <time>2016-05-08T06:55:15Z</time>
      </trkpt>
      <trkpt lat="44.76118" lon="3.87846">
        <ele>1094.12</ele>
        <time>2016-05-08T06:55:28Z</time>
      </trkpt>
      <trkpt lat="44.76111" lon="3.87826">
        <ele>1090.75</ele>
        <time>2016-05-08T06:55:40Z</time>
      </trkpt>
      <trkpt lat="44.7611" lon="3.87825">
        <ele>1090.75</ele>
        <time>2016-05-08T06:55:41Z</time>
      </trkpt>
      <trkpt lat="44.76102" lon="3.87801">
        <ele>1089.31</ele>
        <time>2016-05-08T06:55:57Z</time>
      </trkpt>
      <trkpt lat="44.76096" lon="3.87788">
        <ele>1088.83</ele>
        <time>2016-05-08T06:56:10Z</time>
      </trkpt>
      <trkpt lat="44.76089" lon="3.87773">
        <ele>1088.83</ele>
        <time>2016-05-08T06:56:22Z</time>
      </trkpt>
      <trkpt lat="44.76083" lon="3.87766">
        <ele>1090.27</ele>
        <time>2016-05-08T06:56:28Z</time>
      </trkpt>
      <trkpt lat="44.76078" lon="3.87758">
        <ele>1090.27</ele>
        <time>2016-05-08T06:56:34Z</time>
      </trkpt>
      <trkpt lat="44.76076" lon="3.87753">
        <ele>1090.75</ele>
        <time>2016-05-08T06:56:38Z</time>
      </trkpt>
      <trkpt lat="44.76073" lon="3.8775">
        <ele>1089.31</ele>
        <time>2016-05-08T06:56:41Z</time>
      </trkpt>
      <trkpt lat="44.76072" lon="3.87747">
        <ele>1089.31</ele>
        <time>2016-05-08T06:56:43Z</time>
      </trkpt>
      <trkpt lat="44.76062" lon="3.87728">
        <ele>1088.83</ele>
        <time>2016-05-08T06:56:56Z</time>
      </trkpt>
      <trkpt lat="44.76058" lon="3.87721">
        <ele>1087.87</ele>
        <time>2016-05-08T06:57:03Z</time>
      </trkpt>
      <trkpt lat="44.76051" lon="3.87708">
        <ele>1086.91</ele>
        <time>2016-05-08T06:57:12Z</time>
      </trkpt>
      <trkpt lat="44.76043" lon="3.87695">
        <ele>1088.35</ele>
        <time>2016-05-08T06:57:22Z</time>
      </trkpt>
      <trkpt lat="44.7604" lon="3.87688">
        <ele>1086.91</ele>
        <time>2016-05-08T06:57:27Z</time>
      </trkpt>
      <trkpt lat="44.76028" lon="3.87669">
        <ele>1085.95</ele>
        <time>2016-05-08T06:57:42Z</time>
      </trkpt>
      <trkpt lat="44.76021" lon="3.87651">
        <ele>1086.43</ele>
        <time>2016-05-08T06:57:54Z</time>
      </trkpt>
      <trkpt lat="44.76016" lon="3.8763">
        <ele>1084.5</ele>
        <time>2016-05-08T06:58:06Z</time>
      </trkpt>
      <trkpt lat="44.76013" lon="3.87619">
        <ele>1084.5</ele>
        <time>2016-05-08T06:58:13Z</time>
      </trkpt>
      <trkpt lat="44.76008" lon="3.87598">
        <ele>1083.06</ele>
        <time>2016-05-08T06:58:28Z</time>
      </trkpt>
      <trkpt lat="44.76001" lon="3.87572">
        <ele>1081.62</ele>
        <time>2016-05-08T06:58:43Z</time>
      </trkpt>
      <trkpt lat="44.75995" lon="3.87549">
        <ele>1079.22</ele>
        <time>2016-05-08T06:58:58Z</time>
      </trkpt>
      <trkpt lat="44.75989" lon="3.87524">
        <ele>1078.26</ele>
        <time>2016-05-08T06:59:14Z</time>
      </trkpt>
      <trkpt lat="44.75985" lon="3.87504">
        <ele>1075.85</ele>
        <time>2016-05-08T06:59:26Z</time>
      </trkpt>
      <trkpt lat="44.75978" lon="3.87489">
        <ele>1074.89</ele>
        <time>2016-05-08T06:59:36Z</time>
      </trkpt>
      <trkpt lat="44.75972" lon="3.87483">
        <ele>1073.93</ele>
        <time>2016-05-08T06:59:42Z</time>
      </trkpt>
      <trkpt lat="44.75961" lon="3.87467">
        <ele>1071.05</ele>
        <time>2016-05-08T06:59:56Z</time>
      </trkpt>
      <trkpt lat="44.75955" lon="3.8746">
        <ele>1070.57</ele>
        <time>2016-05-08T07:00:02Z</time>
      </trkpt>
      <trkpt lat="44.75948" lon="3.87454">
        <ele>1070.08</ele>
        <time>2016-05-08T07:00:09Z</time>
      </trkpt>
      <trkpt lat="44.75929" lon="3.8744">
        <ele>1067.68</ele>
        <time>2016-05-08T07:00:26Z</time>
      </trkpt>
      <trkpt lat="44.75924" lon="3.87436">
        <ele>1065.76</ele>
        <time>2016-05-08T07:00:31Z</time>
      </trkpt>
      <trkpt lat="44.75911" lon="3.87425">
        <ele>1064.8</ele>
        <time>2016-05-08T07:00:43Z</time>
      </trkpt>
      <trkpt lat="44.75897" lon="3.87413">
        <ele>1063.84</ele>
        <time>2016-05-08T07:00:57Z</time>
      </trkpt>
      <trkpt lat="44.75882" lon="3.874">
        <ele>1061.43</ele>
        <time>2016-05-08T07:01:12Z</time>
      </trkpt>
      <trkpt lat="44.75879" lon="3.87394">
        <ele>1060.47</ele>
        <time>2016-05-08T07:01:21Z</time>
      </trkpt>
      <trkpt lat="44.75863" lon="3.87379">
        <ele>1059.03</ele>
        <time>2016-05-08T07:01:37Z</time>
      </trkpt>
      <trkpt lat="44.75855" lon="3.87372">
        <ele>1058.55</ele>
        <time>2016-05-08T07:01:45Z</time>
      </trkpt>
      <trkpt lat="44.75841" lon="3.8736">
        <ele>1055.67</ele>
        <time>2016-05-08T07:01:57Z</time>
      </trkpt>
      <trkpt lat="44.75827" lon="3.87349">
        <ele>1057.59</ele>
        <time>2016-05-08T07:02:10Z</time>
      </trkpt>
      <trkpt lat="44.75826" lon="3.87348">
        <ele>1054.7</ele>
        <time>2016-05-08T07:02:11Z</time>
      </trkpt>
      <trkpt lat="44.7582" lon="3.87345">
        <ele>1050.86</ele>
        <time>2016-05-08T07:02:17Z</time>
      </trkpt>
      <trkpt lat="44.7581" lon="3.87336">
        <ele>1049.9</ele>
        <time>2016-05-08T07:02:26Z</time>
      </trkpt>
      <trkpt lat="44.75799" lon="3.8733">
        <ele>1049.9</ele>
        <time>2016-05-08T07:02:35Z</time>
      </trkpt>
      <trkpt lat="44.75796" lon="3.87329">
        <ele>1051.34</ele>
        <time>2016-05-08T07:02:38Z</time>
      </trkpt>
      <trkpt lat="44.75787" lon="3.87321">
        <ele>1050.38</ele>
        <time>2016-05-08T07:02:46Z</time>
      </trkpt>
      <trkpt lat="44.75777" lon="3.87314">
        <ele>1047.97</ele>
        <time>2016-05-08T07:02:54Z</time>
      </trkpt>
      <trkpt lat="44.75776" lon="3.87314">
        <ele>1047.49</ele>
        <time>2016-05-08T07:02:55Z</time>
      </trkpt>
      <trkpt lat="44.75773" lon="3.8731">
        <ele>1048.45</ele>
        <time>2016-05-08T07:02:58Z</time>
      </trkpt>
      <trkpt lat="44.75768" lon="3.87306">
        <ele>1048.94</ele>
        <time>2016-05-08T07:03:03Z</time>
      </trkpt>
      <trkpt lat="44.7575" lon="3.87294">
        <ele>1047.01</ele>
        <time>2016-05-08T07:03:18Z</time>
      </trkpt>
      <trkpt lat="44.75735" lon="3.87283">
        <ele>1047.49</ele>
        <time>2016-05-08T07:03:32Z</time>
      </trkpt>
      <trkpt lat="44.75719" lon="3.87269">
        <ele>1044.61</ele>
        <time>2016-05-08T07:03:45Z</time>
      </trkpt>
      <trkpt lat="44.75718" lon="3.87268">
        <ele>1044.61</ele>
        <time>2016-05-08T07:03:46Z</time>
      </trkpt>
      <trkpt lat="44.75701" lon="3.87256">
        <ele>1043.17</ele>
        <time>2016-05-08T07:04:01Z</time>
      </trkpt>
      <trkpt lat="44.75691" lon="3.87249">
        <ele>1043.17</ele>
        <time>2016-05-08T07:04:11Z</time>
      </trkpt>
      <trkpt lat="44.75683" lon="3.87243">
        <ele>1041.25</ele>
        <time>2016-05-08T07:04:18Z</time>
      </trkpt>
      <trkpt lat="44.75681" lon="3.8724">
        <ele>1039.8</ele>
        <time>2016-05-08T07:04:20Z</time>
      </trkpt>
      <trkpt lat="44.7567" lon="3.87229">
        <ele>1042.21</ele>
        <time>2016-05-08T07:04:31Z</time>
      </trkpt>
      <trkpt lat="44.75656" lon="3.87215">
        <ele>1039.32</ele>
        <time>2016-05-08T07:04:45Z</time>
      </trkpt>
      <trkpt lat="44.75647" lon="3.87206">
        <ele>1038.36</ele>
        <time>2016-05-08T07:04:55Z</time>
      </trkpt>
      <trkpt lat="44.75639" lon="3.87198">
        <ele>1038.36</ele>
        <time>2016-05-08T07:05:04Z</time>
      </trkpt>
      <trkpt lat="44.75632" lon="3.8719">
        <ele>1037.4</ele>
        <time>2016-05-08T07:05:11Z</time>
      </trkpt>
      <trkpt lat="44.75626" lon="3.87182">
        <ele>1037.4</ele>
        <time>2016-05-08T07:05:18Z</time>
      </trkpt>
      <trkpt lat="44.75623" lon="3.87178">
        <ele>1037.4</ele>
        <time>2016-05-08T07:05:21Z</time>
      </trkpt>
      <trkpt lat="44.75617" lon="3.8717">
        <ele>1037.88</ele>
        <time>2016-05-08T07:05:28Z</time>
      </trkpt>
      <trkpt lat="44.75612" lon="3.87164">
        <ele>1038.36</ele>
        <time>2016-05-08T07:05:33Z</time>
      </trkpt>
      <trkpt lat="44.75603" lon="3.87151">
        <ele>1035.96</ele>
        <time>2016-05-08T07:05:43Z</time>
      </trkpt>
      <trkpt lat="44.75591" lon="3.87133">
        <ele>1034.52</ele>
        <time>2016-05-08T07:05:56Z</time>
      </trkpt>
      <trkpt lat="44.75578" lon="3.87117">
        <ele>1034.52</ele>
        <time>2016-05-08T07:06:09Z</time>
      </trkpt>
      <trkpt lat="44.75568" lon="3.87104">
        <ele>1034.04</ele>
        <time>2016-05-08T07:06:19Z</time>
      </trkpt>
      <trkpt lat="44.75559" lon="3.87091">
        <ele>1032.59</ele>
        <time>2016-05-08T07:06:29Z</time>
      </trkpt>
      <trkpt lat="44.75546" lon="3.87073">
        <ele>1033.07</ele>
        <time>2016-05-08T07:06:44Z</time>
      </trkpt>
      <trkpt lat="44.75534" lon="3.87055">
        <ele>1032.11</ele>
        <time>2016-05-08T07:06:57Z</time>
      </trkpt>
      <trkpt lat="44.75521" lon="3.87034">
        <ele>1030.67</ele>
        <time>2016-05-08T07:07:12Z</time>
      </trkpt>
      <trkpt lat="44.75517" lon="3.87028">
        <ele>1030.67</ele>
        <time>2016-05-08T07:07:17Z</time>
      </trkpt>
      <trkpt lat="44.75512" lon="3.87013">
        <ele>1030.19</ele>
        <time>2016-05-08T07:07:26Z</time>
      </trkpt>
      <trkpt lat="44.75508" lon="3.86988">
        <ele>1029.71</ele>
        <time>2016-05-08T07:07:40Z</time>
      </trkpt>
      <trkpt lat="44.75501" lon="3.86966">
        <ele>1028.75</ele>
        <time>2016-05-08T07:07:53Z</time>
      </trkpt>
      <trkpt lat="44.75492" lon="3.86945">
        <ele>1027.79</ele>
        <time>2016-05-08T07:08:06Z</time>
      </trkpt>
      <trkpt lat="44.75481" lon="3.86924">
        <ele>1028.27</ele>
        <time>2016-05-08T07:08:19Z</time>
      </trkpt>
      <trkpt lat="44.7547" lon="3.86907">
        <ele>1026.83</ele>
        <time>2016-05-08T07:08:31Z</time>
      </trkpt>
      <trkpt lat="44.75468" lon="3.86905">
        <ele>1026.83</ele>
        <time>2016-05-08T07:08:33Z</time>
      </trkpt>
      <trkpt lat="44.75462" lon="3.86892">
        <ele>1026.34</ele>
        <time>2016-05-08T07:08:41Z</time>
      </trkpt>
      <trkpt lat="44.75459" lon="3.86886">
        <ele>1026.34</ele>
        <time>2016-05-08T07:08:45Z</time>
      </trkpt>
      <trkpt lat="44.75456" lon="3.86881">
        <ele>1025.86</ele>
        <time>2016-05-08T07:08:49Z</time>
      </trkpt>
      <trkpt lat="44.7545" lon="3.86871">
        <ele>1025.38</ele>
        <time>2016-05-08T07:08:56Z</time>
      </trkpt>
      <trkpt lat="44.75443" lon="3.86861">
        <ele>1025.86</ele>
        <time>2016-05-08T07:09:03Z</time>
      </trkpt>
      <trkpt lat="44.75433" lon="3.86847">
        <ele>1024.42</ele>
        <time>2016-05-08T07:09:13Z</time>
      </trkpt>
      <trkpt lat="44.75431" lon="3.86845">
        <ele>1025.86</ele>
        <time>2016-05-08T07:09:15Z</time>
      </trkpt>
      <trkpt lat="44.75419" lon="3.86827">
        <ele>1025.38</ele>
        <time>2016-05-08T07:09:29Z</time>
      </trkpt>
      <trkpt lat="44.75411" lon="3.86816">
        <ele>1024.42</ele>
        <time>2016-05-08T07:09:40Z</time>
      </trkpt>
      <trkpt lat="44.75405" lon="3.86807">
        <ele>1024.9</ele>
        <time>2016-05-08T07:09:49Z</time>
      </trkpt>
      <trkpt lat="44.75393" lon="3.86791">
        <ele>1025.86</ele>
        <time>2016-05-08T07:10:02Z</time>
      </trkpt>
      <trkpt lat="44.75388" lon="3.86785">
        <ele>1025.38</ele>
        <time>2016-05-08T07:10:07Z</time>
      </trkpt>
      <trkpt lat="44.7538" lon="3.86779">
        <ele>1025.38</ele>
        <time>2016-05-08T07:10:14Z</time>
      </trkpt>
      <trkpt lat="44.7537" lon="3.86771">
        <ele>1024.42</ele>
        <time>2016-05-08T07:10:24Z</time>
      </trkpt>
      <trkpt lat="44.75359" lon="3.86764">
        <ele>1025.38</ele>
        <time>2016-05-08T07:10:34Z</time>
      </trkpt>
      <trkpt lat="44.75347" lon="3.86753">
        <ele>1026.34</ele>
        <time>2016-05-08T07:10:45Z</time>
      </trkpt>
      <trkpt lat="44.75332" lon="3.86742">
        <ele>1025.38</ele>
        <time>2016-05-08T07:10:59Z</time>
      </trkpt>
      <trkpt lat="44.75328" lon="3.86738">
        <ele>1025.38</ele>
        <time>2016-05-08T07:11:03Z</time>
      </trkpt>
      <trkpt lat="44.75325" lon="3.86734">
        <ele>1023.94</ele>
        <time>2016-05-08T07:11:06Z</time>
      </trkpt>
      <trkpt lat="44.75315" lon="3.86724">
        <ele>1023.94</ele>
        <time>2016-05-08T07:11:16Z</time>
      </trkpt>
      <trkpt lat="44.75301" lon="3.86706">
        <ele>1023.46</ele>
        <time>2016-05-08T07:11:31Z</time>
      </trkpt>
      <trkpt lat="44.75288" lon="3.86689">
        <ele>1022.98</ele>
        <time>2016-05-08T07:11:45Z</time>
      </trkpt>
      <trkpt lat="44.75275" lon="3.86671">
        <ele>1024.42</ele>
        <time>2016-05-08T07:12:01Z</time>
      </trkpt>
      <trkpt lat="44.7526" lon="3.86651">
        <ele>1022.5</ele>
        <time>2016-05-08T07:12:17Z</time>
      </trkpt>
      <trkpt lat="44.75247" lon="3.8663">
        <ele>1023.94</ele>
        <time>2016-05-08T07:12:32Z</time>
      </trkpt>
      <trkpt lat="44.75233" lon="3.86611">
        <ele>1022.98</ele>
        <time>2016-05-08T07:12:48Z</time>
      </trkpt>
      <trkpt lat="44.75224" lon="3.86598">
        <ele>1023.94</ele>
        <time>2016-05-08T07:12:59Z</time>
      </trkpt>
      <trkpt lat="44.75218" lon="3.8659">
        <ele>1023.94</ele>
        <time>2016-05-08T07:13:06Z</time>
      </trkpt>
      <trkpt lat="44.75211" lon="3.86574">
        <ele>1023.46</ele>
        <time>2016-05-08T07:13:16Z</time>
      </trkpt>
      <trkpt lat="44.75199" lon="3.86555">
        <ele>1023.46</ele>
        <time>2016-05-08T07:13:31Z</time>
      </trkpt>
      <trkpt lat="44.7519" lon="3.86541">
        <ele>1023.94</ele>
        <time>2016-05-08T07:13:41Z</time>
      </trkpt>
      <trkpt lat="44.75183" lon="3.86527">
        <ele>1024.42</ele>
        <time>2016-05-08T07:13:52Z</time>
      </trkpt>
      <trkpt lat="44.75176" lon="3.86515">
        <ele>1025.86</ele>
        <time>2016-05-08T07:14:01Z</time>
      </trkpt>
      <trkpt lat="44.75174" lon="3.86511">
        <ele>1026.34</ele>
        <time>2016-05-08T07:14:04Z</time>
      </trkpt>
      <trkpt lat="44.75172" lon="3.86504">
        <ele>1024.42</ele>
        <time>2016-05-08T07:14:09Z</time>
      </trkpt>
      <trkpt lat="44.75167" lon="3.86497">
        <ele>1024.9</ele>
        <time>2016-05-08T07:14:16Z</time>
      </trkpt>
      <trkpt lat="44.75157" lon="3.8648">
        <ele>1025.86</ele>
        <time>2016-05-08T07:14:30Z</time>
      </trkpt>
      <trkpt lat="44.75151" lon="3.86469">
        <ele>1024.9</ele>
        <time>2016-05-08T07:14:39Z</time>
      </trkpt>
      <trkpt lat="44.75143" lon="3.86447">
        <ele>1024.42</ele>
        <time>2016-05-08T07:14:54Z</time>
      </trkpt>
      <trkpt lat="44.75134" lon="3.86431">
        <ele>1023.94</ele>
        <time>2016-05-08T07:15:06Z</time>
      </trkpt>
      <trkpt lat="44.75126" lon="3.86412">
        <ele>1024.9</ele>
        <time>2016-05-08T07:15:18Z</time>
      </trkpt>
      <trkpt lat="44.75124" lon="3.86406">
        <ele>1023.94</ele>
        <time>2016-05-08T07:15:22Z</time>
      </trkpt>
      <trkpt lat="44.75112" lon="3.86378">
        <ele>1023.46</ele>
        <time>2016-05-08T07:15:40Z</time>
      </trkpt>
      <trkpt lat="44.75101" lon="3.8636">
        <ele>1023.46</ele>
        <time>2016-05-08T07:15:53Z</time>
      </trkpt>
      <trkpt lat="44.75099" lon="3.86358">
        <ele>1024.42</ele>
        <time>2016-05-08T07:15:55Z</time>
      </trkpt>
      <trkpt lat="44.75098" lon="3.86355">
        <ele>1023.46</ele>
        <time>2016-05-08T07:15:57Z</time>
      </trkpt>
      <trkpt lat="44.75092" lon="3.8635">
        <ele>1022.5</ele>
        <time>2016-05-08T07:16:02Z</time>
      </trkpt>
      <trkpt lat="44.75081" lon="3.86333">
        <ele>1021.54</ele>
        <time>2016-05-08T07:16:14Z</time>
      </trkpt>
      <trkpt lat="44.75075" lon="3.86324">
        <ele>1022.02</ele>
        <time>2016-05-08T07:16:21Z</time>
      </trkpt>
      <trkpt lat="44.75066" lon="3.86314">
        <ele>1021.54</ele>
        <time>2016-05-08T07:16:33Z</time>
      </trkpt>
      <trkpt lat="44.75057" lon="3.863">
        <ele>1017.21</ele>
        <time>2016-05-08T07:16:43Z</time>
      </trkpt>
      <trkpt lat="44.75055" lon="3.86297">
        <ele>1019.13</ele>
        <time>2016-05-08T07:16:46Z</time>
      </trkpt>
      <trkpt lat="44.75039" lon="3.86281">
        <ele>1020.1</ele>
        <time>2016-05-08T07:17:03Z</time>
      </trkpt>
      <trkpt lat="44.75029" lon="3.86268">
        <ele>1018.65</ele>
        <time>2016-05-08T07:17:13Z</time>
      </trkpt>
      <trkpt lat="44.75014" lon="3.86253">
        <ele>1018.17</ele>
        <time>2016-05-08T07:17:27Z</time>
      </trkpt>
      <trkpt lat="44.74999" lon="3.86233">
        <ele>1018.65</ele>
        <time>2016-05-08T07:17:43Z</time>
      </trkpt>
      <trkpt lat="44.74988" lon="3.8622">
        <ele>1020.58</ele>
        <time>2016-05-08T07:17:55Z</time>
      </trkpt>
      <trkpt lat="44.74978" lon="3.86212">
        <ele>1019.62</ele>
        <time>2016-05-08T07:18:04Z</time>
      </trkpt>
      <trkpt lat="44.74974" lon="3.86209">
        <ele>1018.65</ele>
        <time>2016-05-08T07:18:08Z</time>
      </trkpt>
      <trkpt lat="44.7497" lon="3.86207">
        <ele>1018.17</ele>
        <time>2016-05-08T07:18:15Z</time>
      </trkpt>
      <trkpt lat="44.74953" lon="3.86198">
        <ele>1016.25</ele>
        <time>2016-05-08T07:18:30Z</time>
      </trkpt>
      <trkpt lat="44.7494" lon="3.86192">
        <ele>1015.29</ele>
        <time>2016-05-08T07:18:41Z</time>
      </trkpt>
      <trkpt lat="44.74926" lon="3.86186">
        <ele>1016.25</ele>
        <time>2016-05-08T07:18:52Z</time>
      </trkpt>
      <trkpt lat="44.74919" lon="3.86184">
        <ele>1018.17</ele>
        <time>2016-05-08T07:18:57Z</time>
      </trkpt>
      <trkpt lat="44.74912" lon="3.86183">
        <ele>1017.69</ele>
        <time>2016-05-08T07:19:02Z</time>
      </trkpt>
      <trkpt lat="44.7491" lon="3.86181">
        <ele>1014.81</ele>
        <time>2016-05-08T07:19:04Z</time>
      </trkpt>
      <trkpt lat="44.74903" lon="3.8618">
        <ele>1013.85</ele>
        <time>2016-05-08T07:19:10Z</time>
      </trkpt>
      <trkpt lat="44.74892" lon="3.86178">
        <ele>1013.85</ele>
        <time>2016-05-08T07:19:19Z</time>
      </trkpt>
      <trkpt lat="44.74885" lon="3.86177">
        <ele>1012.41</ele>
        <time>2016-05-08T07:19:24Z</time>
      </trkpt>
      <trkpt lat="44.74882" lon="3.86176">
        <ele>1012.41</ele>
        <time>2016-05-08T07:19:26Z</time>
      </trkpt>
      <trkpt lat="44.7487" lon="3.8617">
        <ele>1010</ele>
        <time>2016-05-08T07:19:35Z</time>
      </trkpt>
      <trkpt lat="44.7485" lon="3.8616">
        <ele>1010</ele>
        <time>2016-05-08T07:19:50Z</time>
      </trkpt>
      <trkpt lat="44.74844" lon="3.86157">
        <ele>1009.04</ele>
        <time>2016-05-08T07:19:55Z</time>
      </trkpt>
      <trkpt lat="44.7483" lon="3.8615">
        <ele>1007.6</ele>
        <time>2016-05-08T07:20:07Z</time>
      </trkpt>
      <trkpt lat="44.74818" lon="3.86144">
        <ele>1007.12</ele>
        <time>2016-05-08T07:20:17Z</time>
      </trkpt>
      <trkpt lat="44.74806" lon="3.86136">
        <ele>1004.72</ele>
        <time>2016-05-08T07:20:28Z</time>
      </trkpt>
      <trkpt lat="44.74799" lon="3.86133">
        <ele>1003.75</ele>
        <time>2016-05-08T07:20:34Z</time>
      </trkpt>
      <trkpt lat="44.74783" lon="3.86121">
        <ele>1001.83</ele>
        <time>2016-05-08T07:20:48Z</time>
      </trkpt>
      <trkpt lat="44.74781" lon="3.86121">
        <ele>1002.31</ele>
        <time>2016-05-08T07:20:50Z</time>
      </trkpt>
      <trkpt lat="44.74774" lon="3.86118">
        <ele>1001.83</ele>
        <time>2016-05-08T07:20:56Z</time>
      </trkpt>
      <trkpt lat="44.74771" lon="3.86116">
        <ele>1000.39</ele>
        <time>2016-05-08T07:20:59Z</time>
      </trkpt>
      <trkpt lat="44.74766" lon="3.86112">
        <ele>998.47</ele>
        <time>2016-05-08T07:21:04Z</time>
      </trkpt>
      <trkpt lat="44.74762" lon="3.86108">
        <ele>998.95</ele>
        <time>2016-05-08T07:21:07Z</time>
      </trkpt>
      <trkpt lat="44.74758" lon="3.86104">
        <ele>999.91</ele>
        <time>2016-05-08T07:21:11Z</time>
      </trkpt>
      <trkpt lat="44.74752" lon="3.86098">
        <ele>997.51</ele>
        <time>2016-05-08T07:21:17Z</time>
      </trkpt>
      <trkpt lat="44.74741" lon="3.86087">
        <ele>996.54</ele>
        <time>2016-05-08T07:21:29Z</time>
      </trkpt>
      <trkpt lat="44.74729" lon="3.86073">
        <ele>993.18</ele>
        <time>2016-05-08T07:21:42Z</time>
      </trkpt>
      <trkpt lat="44.74726" lon="3.86069">
        <ele>993.18</ele>
        <time>2016-05-08T07:21:49Z</time>
      </trkpt>
      <trkpt lat="44.74718" lon="3.86062">
        <ele>993.18</ele>
        <time>2016-05-08T07:21:57Z</time>
      </trkpt>
      <trkpt lat="44.74711" lon="3.86054">
        <ele>990.78</ele>
        <time>2016-05-08T07:22:04Z</time>
      </trkpt>
      <trkpt lat="44.7471" lon="3.86053">
        <ele>991.26</ele>
        <time>2016-05-08T07:22:05Z</time>
      </trkpt>
      <trkpt lat="44.74696" lon="3.86041">
        <ele>989.81</ele>
        <time>2016-05-08T07:22:19Z</time>
      </trkpt>
      <trkpt lat="44.74687" lon="3.86034">
        <ele>986.45</ele>
        <time>2016-05-08T07:22:28Z</time>
      </trkpt>
      <trkpt lat="44.74684" lon="3.86031">
        <ele>987.89</ele>
        <time>2016-05-08T07:22:31Z</time>
      </trkpt>
      <trkpt lat="44.74673" lon="3.86023">
        <ele>987.41</ele>
        <time>2016-05-08T07:22:40Z</time>
      </trkpt>
      <trkpt lat="44.74667" lon="3.86019">
        <ele>986.45</ele>
        <time>2016-05-08T07:22:46Z</time>
      </trkpt>
      <trkpt lat="44.74665" lon="3.86017">
        <ele>986.45</ele>
        <time>2016-05-08T07:22:48Z</time>
      </trkpt>
      <trkpt lat="44.7466" lon="3.86015">
        <ele>986.93</ele>
        <time>2016-05-08T07:22:52Z</time>
      </trkpt>
      <trkpt lat="44.74644" lon="3.86003">
        <ele>983.57</ele>
        <time>2016-05-08T07:23:07Z</time>
      </trkpt>
      <trkpt lat="44.74643" lon="3.86003">
        <ele>984.05</ele>
        <time>2016-05-08T07:23:08Z</time>
      </trkpt>
      <trkpt lat="44.74626" lon="3.85984">
        <ele>982.12</ele>
        <time>2016-05-08T07:23:23Z</time>
      </trkpt>
      <trkpt lat="44.74614" lon="3.85972">
        <ele>981.16</ele>
        <time>2016-05-08T07:23:34Z</time>
      </trkpt>
      <trkpt lat="44.74609" lon="3.8597">
        <ele>980.2</ele>
        <time>2016-05-08T07:23:39Z</time>
      </trkpt>
      <trkpt lat="44.74593" lon="3.85955">
        <ele>980.68</ele>
        <time>2016-05-08T07:23:53Z</time>
      </trkpt>
      <trkpt lat="44.74592" lon="3.85955">
        <ele>980.2</ele>
        <time>2016-05-08T07:23:54Z</time>
      </trkpt>
      <trkpt lat="44.74584" lon="3.85952">
        <ele>979.72</ele>
        <time>2016-05-08T07:24:01Z</time>
      </trkpt>
      <trkpt lat="44.74573" lon="3.85944">
        <ele>980.68</ele>
        <time>2016-05-08T07:24:11Z</time>
      </trkpt>
      <trkpt lat="44.74563" lon="3.85937">
        <ele>977.8</ele>
        <time>2016-05-08T07:24:19Z</time>
      </trkpt>
      <trkpt lat="44.74546" lon="3.85939">
        <ele>977.8</ele>
        <time>2016-05-08T07:24:34Z</time>
      </trkpt>
      <trkpt lat="44.74533" lon="3.85949">
        <ele>978.28</ele>
        <time>2016-05-08T07:24:47Z</time>
      </trkpt>
      <trkpt lat="44.74529" lon="3.85952">
        <ele>977.8</ele>
        <time>2016-05-08T07:24:50Z</time>
      </trkpt>
      <trkpt lat="44.74513" lon="3.85966">
        <ele>977.8</ele>
        <time>2016-05-08T07:25:06Z</time>
      </trkpt>
      <trkpt lat="44.74496" lon="3.85983">
        <ele>976.84</ele>
        <time>2016-05-08T07:25:22Z</time>
      </trkpt>
      <trkpt lat="44.74482" lon="3.85997">
        <ele>977.8</ele>
        <time>2016-05-08T07:25:36Z</time>
      </trkpt>
      <trkpt lat="44.7448" lon="3.85999">
        <ele>977.32</ele>
        <time>2016-05-08T07:25:38Z</time>
      </trkpt>
      <trkpt lat="44.74462" lon="3.86006">
        <ele>975.39</ele>
        <time>2016-05-08T07:25:52Z</time>
      </trkpt>
      <trkpt lat="44.74455" lon="3.86009">
        <ele>977.8</ele>
        <time>2016-05-08T07:25:57Z</time>
      </trkpt>
      <trkpt lat="44.74441" lon="3.8601">
        <ele>976.36</ele>
        <time>2016-05-08T07:26:08Z</time>
      </trkpt>
      <trkpt lat="44.74423" lon="3.8601">
        <ele>977.32</ele>
        <time>2016-05-08T07:26:22Z</time>
      </trkpt>
      <trkpt lat="44.74406" lon="3.86007">
        <ele>975.88</ele>
        <time>2016-05-08T07:26:36Z</time>
      </trkpt>
      <trkpt lat="44.74386" lon="3.86002">
        <ele>975.39</ele>
        <time>2016-05-08T07:26:51Z</time>
      </trkpt>
      <trkpt lat="44.74371" lon="3.85998">
        <ele>976.36</ele>
        <time>2016-05-08T07:27:06Z</time>
      </trkpt>
      <trkpt lat="44.74351" lon="3.8599">
        <ele>976.36</ele>
        <time>2016-05-08T07:27:20Z</time>
      </trkpt>
      <trkpt lat="44.7434" lon="3.85988">
        <ele>972.99</ele>
        <time>2016-05-08T07:27:30Z</time>
      </trkpt>
      <trkpt lat="44.74331" lon="3.85986">
        <ele>976.36</ele>
        <time>2016-05-08T07:27:38Z</time>
      </trkpt>
      <trkpt lat="44.7431" lon="3.85975">
        <ele>975.88</ele>
        <time>2016-05-08T07:27:53Z</time>
      </trkpt>
      <trkpt lat="44.74301" lon="3.85971">
        <ele>975.39</ele>
        <time>2016-05-08T07:28:03Z</time>
      </trkpt>
      <trkpt lat="44.74296" lon="3.85971">
        <ele>974.91</ele>
        <time>2016-05-08T07:28:18Z</time>
      </trkpt>
      <trkpt lat="44.74296" lon="3.8597">
        <ele>975.88</ele>
        <time>2016-05-08T07:28:47Z</time>
      </trkpt>
      <trkpt lat="44.74296" lon="3.85972">
        <ele>975.88</ele>
        <time>2016-05-08T07:29:34Z</time>
      </trkpt>
      <trkpt lat="44.74296" lon="3.85972">
        <ele>976.84</ele>
        <time>2016-05-08T07:30:00Z</time>
      </trkpt>
      <trkpt lat="44.74294" lon="3.85973">
        <ele>976.36</ele>
        <time>2016-05-08T07:31:18Z</time>
      </trkpt>
      <trkpt lat="44.74288" lon="3.85969">
        <ele>976.36</ele>
        <time>2016-05-08T07:31:55Z</time>
      </trkpt>
      <trkpt lat="44.74283" lon="3.85968">
        <ele>974.43</ele>
        <time>2016-05-08T07:32:00Z</time>
      </trkpt>
      <trkpt lat="44.74271" lon="3.85962">
        <ele>973.47</ele>
        <time>2016-05-08T07:32:13Z</time>
      </trkpt>
      <trkpt lat="44.74266" lon="3.85958">
        <ele>971.55</ele>
        <time>2016-05-08T07:32:23Z</time>
      </trkpt>
      <trkpt lat="44.74259" lon="3.85954">
        <ele>970.11</ele>
        <time>2016-05-08T07:32:29Z</time>
      </trkpt>
      <trkpt lat="44.74242" lon="3.85946">
        <ele>972.03</ele>
        <time>2016-05-08T07:32:42Z</time>
      </trkpt>
      <trkpt lat="44.7424" lon="3.85944">
        <ele>970.11</ele>
        <time>2016-05-08T07:32:44Z</time>
      </trkpt>
      <trkpt lat="44.74234" lon="3.8594">
        <ele>971.55</ele>
        <time>2016-05-08T07:32:50Z</time>
      </trkpt>
      <trkpt lat="44.74227" lon="3.85934">
        <ele>967.7</ele>
        <time>2016-05-08T07:32:57Z</time>
      </trkpt>
      <trkpt lat="44.74222" lon="3.85927">
        <ele>967.7</ele>
        <time>2016-05-08T07:33:03Z</time>
      </trkpt>
      <trkpt lat="44.74213" lon="3.85914">
        <ele>967.7</ele>
        <time>2016-05-08T07:33:14Z</time>
      </trkpt>
      <trkpt lat="44.74202" lon="3.85898">
        <ele>966.26</ele>
        <time>2016-05-08T07:33:27Z</time>
      </trkpt>
      <trkpt lat="44.74194" lon="3.85876">
        <ele>966.26</ele>
        <time>2016-05-08T07:33:41Z</time>
      </trkpt>
      <trkpt lat="44.74187" lon="3.85854">
        <ele>965.3</ele>
        <time>2016-05-08T07:33:55Z</time>
      </trkpt>
      <trkpt lat="44.74185" lon="3.85836">
        <ele>963.38</ele>
        <time>2016-05-08T07:34:05Z</time>
      </trkpt>
      <trkpt lat="44.74185" lon="3.8583">
        <ele>963.38</ele>
        <time>2016-05-08T07:34:09Z</time>
      </trkpt>
      <trkpt lat="44.74185" lon="3.8582">
        <ele>962.42</ele>
        <time>2016-05-08T07:34:15Z</time>
      </trkpt>
      <trkpt lat="44.74184" lon="3.85813">
        <ele>962.42</ele>
        <time>2016-05-08T07:34:19Z</time>
      </trkpt>
      <trkpt lat="44.74184" lon="3.8581">
        <ele>962.42</ele>
        <time>2016-05-08T07:34:21Z</time>
      </trkpt>
      <trkpt lat="44.74182" lon="3.85798">
        <ele>960.98</ele>
        <time>2016-05-08T07:34:28Z</time>
      </trkpt>
      <trkpt lat="44.74181" lon="3.85791">
        <ele>961.94</ele>
        <time>2016-05-08T07:34:32Z</time>
      </trkpt>
      <trkpt lat="44.74179" lon="3.85782">
        <ele>960.98</ele>
        <time>2016-05-08T07:34:38Z</time>
      </trkpt>
      <trkpt lat="44.74175" lon="3.85773">
        <ele>960.49</ele>
        <time>2016-05-08T07:34:44Z</time>
      </trkpt>
      <trkpt lat="44.7417" lon="3.85764">
        <ele>959.53</ele>
        <time>2016-05-08T07:34:51Z</time>
      </trkpt>
      <trkpt lat="44.74166" lon="3.85757">
        <ele>958.57</ele>
        <time>2016-05-08T07:34:56Z</time>
      </trkpt>
      <trkpt lat="44.74161" lon="3.85751">
        <ele>959.05</ele>
        <time>2016-05-08T07:35:01Z</time>
      </trkpt>
      <trkpt lat="44.74157" lon="3.85745">
        <ele>958.09</ele>
        <time>2016-05-08T07:35:06Z</time>
      </trkpt>
      <trkpt lat="44.74152" lon="3.85738">
        <ele>956.65</ele>
        <time>2016-05-08T07:35:11Z</time>
      </trkpt>
      <trkpt lat="44.74137" lon="3.85723">
        <ele>953.77</ele>
        <time>2016-05-08T07:35:25Z</time>
      </trkpt>
      <trkpt lat="44.74112" lon="3.8571">
        <ele>952.32</ele>
        <time>2016-05-08T07:35:46Z</time>
      </trkpt>
      <trkpt lat="44.74096" lon="3.85702">
        <ele>956.17</ele>
        <time>2016-05-08T07:36:00Z</time>
      </trkpt>
      <trkpt lat="44.74093" lon="3.857">
        <ele>952.32</ele>
        <time>2016-05-08T07:36:03Z</time>
      </trkpt>
      <trkpt lat="44.74091" lon="3.85699">
        <ele>951.36</ele>
        <time>2016-05-08T07:36:05Z</time>
      </trkpt>
      <trkpt lat="44.7408" lon="3.85693">
        <ele>946.56</ele>
        <time>2016-05-08T07:36:15Z</time>
      </trkpt>
      <trkpt lat="44.74065" lon="3.85679">
        <ele>948.48</ele>
        <time>2016-05-08T07:36:30Z</time>
      </trkpt>
      <trkpt lat="44.74056" lon="3.85669">
        <ele>945.59</ele>
        <time>2016-05-08T07:36:39Z</time>
      </trkpt>
      <trkpt lat="44.74038" lon="3.85656">
        <ele>942.23</ele>
        <time>2016-05-08T07:36:56Z</time>
      </trkpt>
      <trkpt lat="44.74037" lon="3.85655">
        <ele>942.71</ele>
        <time>2016-05-08T07:36:57Z</time>
      </trkpt>
      <trkpt lat="44.74033" lon="3.85653">
        <ele>943.67</ele>
        <time>2016-05-08T07:37:00Z</time>
      </trkpt>
      <trkpt lat="44.74019" lon="3.85653">
        <ele>940.79</ele>
        <time>2016-05-08T07:37:12Z</time>
      </trkpt>
      <trkpt lat="44.74017" lon="3.85654">
        <ele>940.31</ele>
        <time>2016-05-08T07:37:13Z</time>
      </trkpt>
      <trkpt lat="44.74015" lon="3.85656">
        <ele>940.31</ele>
        <time>2016-05-08T07:37:15Z</time>
      </trkpt>
      <trkpt lat="44.7401" lon="3.85658">
        <ele>939.83</ele>
        <time>2016-05-08T07:37:19Z</time>
      </trkpt>
      <trkpt lat="44.73994" lon="3.85664">
        <ele>940.31</ele>
        <time>2016-05-08T07:37:31Z</time>
      </trkpt>
      <trkpt lat="44.73981" lon="3.85669">
        <ele>939.83</ele>
        <time>2016-05-08T07:37:41Z</time>
      </trkpt>
      <trkpt lat="44.73974" lon="3.85672">
        <ele>941.27</ele>
        <time>2016-05-08T07:37:47Z</time>
      </trkpt>
      <trkpt lat="44.73972" lon="3.85672">
        <ele>941.27</ele>
        <time>2016-05-08T07:37:48Z</time>
      </trkpt>
      <trkpt lat="44.73964" lon="3.85674">
        <ele>940.79</ele>
        <time>2016-05-08T07:37:53Z</time>
      </trkpt>
      <trkpt lat="44.73955" lon="3.85682">
        <ele>938.38</ele>
        <time>2016-05-08T07:38:04Z</time>
      </trkpt>
      <trkpt lat="44.73945" lon="3.85701">
        <ele>933.58</ele>
        <time>2016-05-08T07:38:19Z</time>
      </trkpt>
      <trkpt lat="44.73943" lon="3.85704">
        <ele>932.14</ele>
        <time>2016-05-08T07:38:21Z</time>
      </trkpt>
      <trkpt lat="44.73932" lon="3.85717">
        <ele>934.06</ele>
        <time>2016-05-08T07:38:34Z</time>
      </trkpt>
      <trkpt lat="44.73931" lon="3.85719">
        <ele>930.69</ele>
        <time>2016-05-08T07:38:36Z</time>
      </trkpt>
      <trkpt lat="44.73926" lon="3.85725">
        <ele>929.25</ele>
        <time>2016-05-08T07:38:41Z</time>
      </trkpt>
      <trkpt lat="44.73924" lon="3.85726">
        <ele>926.85</ele>
        <time>2016-05-08T07:38:43Z</time>
      </trkpt>
      <trkpt lat="44.73921" lon="3.85729">
        <ele>928.77</ele>
        <time>2016-05-08T07:38:46Z</time>
      </trkpt>
      <trkpt lat="44.73914" lon="3.85733">
        <ele>927.33</ele>
        <time>2016-05-08T07:38:52Z</time>
      </trkpt>
      <trkpt lat="44.73903" lon="3.85738">
        <ele>925.89</ele>
        <time>2016-05-08T07:39:01Z</time>
      </trkpt>
      <trkpt lat="44.73899" lon="3.8574">
        <ele>923.96</ele>
        <time>2016-05-08T07:39:05Z</time>
      </trkpt>
      <trkpt lat="44.73882" lon="3.85741">
        <ele>923.96</ele>
        <time>2016-05-08T07:39:19Z</time>
      </trkpt>
      <trkpt lat="44.73871" lon="3.85738">
        <ele>923</ele>
        <time>2016-05-08T07:39:28Z</time>
      </trkpt>
      <trkpt lat="44.73868" lon="3.85737">
        <ele>921.56</ele>
        <time>2016-05-08T07:39:30Z</time>
      </trkpt>
      <trkpt lat="44.73851" lon="3.85732">
        <ele>918.2</ele>
        <time>2016-05-08T07:39:45Z</time>
      </trkpt>
      <trkpt lat="44.7385" lon="3.85732">
        <ele>918.2</ele>
        <time>2016-05-08T07:39:46Z</time>
      </trkpt>
      <trkpt lat="44.73831" lon="3.85726">
        <ele>918.2</ele>
        <time>2016-05-08T07:40:01Z</time>
      </trkpt>
      <trkpt lat="44.73826" lon="3.85725">
        <ele>914.83</ele>
        <time>2016-05-08T07:40:05Z</time>
      </trkpt>
      <trkpt lat="44.73808" lon="3.8572">
        <ele>916.27</ele>
        <time>2016-05-08T07:40:20Z</time>
      </trkpt>
      <trkpt lat="44.73791" lon="3.85715">
        <ele>912.43</ele>
        <time>2016-05-08T07:40:33Z</time>
      </trkpt>
      <trkpt lat="44.73773" lon="3.85709">
        <ele>912.91</ele>
        <time>2016-05-08T07:40:46Z</time>
      </trkpt>
      <trkpt lat="44.73759" lon="3.85704">
        <ele>909.06</ele>
        <time>2016-05-08T07:40:57Z</time>
      </trkpt>
      <trkpt lat="44.73758" lon="3.85703">
        <ele>909.06</ele>
        <time>2016-05-08T07:40:58Z</time>
      </trkpt>
      <trkpt lat="44.73756" lon="3.85703">
        <ele>910.99</ele>
        <time>2016-05-08T07:41:00Z</time>
      </trkpt>
      <trkpt lat="44.73751" lon="3.85702">
        <ele>910.51</ele>
        <time>2016-05-08T07:41:04Z</time>
      </trkpt>
      <trkpt lat="44.73737" lon="3.85699">
        <ele>912.43</ele>
        <time>2016-05-08T07:41:17Z</time>
      </trkpt>
      <trkpt lat="44.73732" lon="3.85697">
        <ele>910.03</ele>
        <time>2016-05-08T07:41:21Z</time>
      </trkpt>
      <trkpt lat="44.73721" lon="3.85694">
        <ele>910.99</ele>
        <time>2016-05-08T07:41:31Z</time>
      </trkpt>
      <trkpt lat="44.73708" lon="3.85691">
        <ele>912.91</ele>
        <time>2016-05-08T07:41:45Z</time>
      </trkpt>
      <trkpt lat="44.73708" lon="3.85691">
        <ele>911.47</ele>
        <time>2016-05-08T07:41:48Z</time>
      </trkpt>
      <trkpt lat="44.73707" lon="3.85691">
        <ele>911.95</ele>
        <time>2016-05-08T07:41:49Z</time>
      </trkpt>
      <trkpt lat="44.73702" lon="3.85694">
        <ele>911.95</ele>
        <time>2016-05-08T07:41:58Z</time>
      </trkpt>
      <trkpt lat="44.73696" lon="3.85702">
        <ele>914.35</ele>
        <time>2016-05-08T07:42:09Z</time>
      </trkpt>
      <trkpt lat="44.73696" lon="3.8573">
        <ele>914.35</ele>
        <time>2016-05-08T07:42:23Z</time>
      </trkpt>
      <trkpt lat="44.73695" lon="3.85732">
        <ele>915.79</ele>
        <time>2016-05-08T07:42:24Z</time>
      </trkpt>
      <trkpt lat="44.73691" lon="3.85741">
        <ele>914.35</ele>
        <time>2016-05-08T07:42:31Z</time>
      </trkpt>
      <trkpt lat="44.73682" lon="3.85743">
        <ele>913.87</ele>
        <time>2016-05-08T07:42:45Z</time>
      </trkpt>
      <trkpt lat="44.7368" lon="3.85742">
        <ele>913.39</ele>
        <time>2016-05-08T07:42:56Z</time>
      </trkpt>
      <trkpt lat="44.73672" lon="3.8574">
        <ele>913.39</ele>
        <time>2016-05-08T07:43:03Z</time>
      </trkpt>
      <trkpt lat="44.73666" lon="3.85744">
        <ele>913.39</ele>
        <time>2016-05-08T07:43:11Z</time>
      </trkpt>
      <trkpt lat="44.73664" lon="3.85745">
        <ele>911.95</ele>
        <time>2016-05-08T07:43:14Z</time>
      </trkpt>
      <trkpt lat="44.73657" lon="3.85749">
        <ele>912.43</ele>
        <time>2016-05-08T07:43:21Z</time>
      </trkpt>
      <trkpt lat="44.73652" lon="3.85754">
        <ele>911.47</ele>
        <time>2016-05-08T07:43:27Z</time>
      </trkpt>
      <trkpt lat="44.73647" lon="3.85755">
        <ele>913.39</ele>
        <time>2016-05-08T07:43:31Z</time>
      </trkpt>
      <trkpt lat="44.7364" lon="3.85756">
        <ele>913.39</ele>
        <time>2016-05-08T07:43:36Z</time>
      </trkpt>
      <trkpt lat="44.73638" lon="3.85758">
        <ele>912.43</ele>
        <time>2016-05-08T07:43:38Z</time>
      </trkpt>
      <trkpt lat="44.73631" lon="3.85762">
        <ele>912.43</ele>
        <time>2016-05-08T07:43:46Z</time>
      </trkpt>
      <trkpt lat="44.73617" lon="3.85771">
        <ele>913.39</ele>
        <time>2016-05-08T07:43:57Z</time>
      </trkpt>
      <trkpt lat="44.73599" lon="3.85781">
        <ele>912.43</ele>
        <time>2016-05-08T07:44:12Z</time>
      </trkpt>
      <trkpt lat="44.73594" lon="3.85787">
        <ele>912.43</ele>
        <time>2016-05-08T07:44:17Z</time>
      </trkpt>
      <trkpt lat="44.73587" lon="3.85802">
        <ele>912.91</ele>
        <time>2016-05-08T07:44:29Z</time>
      </trkpt>
      <trkpt lat="44.73576" lon="3.85802">
        <ele>912.43</ele>
        <time>2016-05-08T07:44:41Z</time>
      </trkpt>
      <trkpt lat="44.73576" lon="3.85802">
        <ele>912.91</ele>
        <time>2016-05-08T07:45:03Z</time>
      </trkpt>
      <trkpt lat="44.73575" lon="3.85803">
        <ele>908.58</ele>
        <time>2016-05-08T07:45:21Z</time>
      </trkpt>
      <trkpt lat="44.73575" lon="3.85803">
        <ele>912.43</ele>
        <time>2016-05-08T07:45:24Z</time>
      </trkpt>
      <trkpt lat="44.73575" lon="3.85803">
        <ele>912.43</ele>
        <time>2016-05-08T07:45:25Z</time>
      </trkpt>
      <trkpt lat="44.73575" lon="3.85803">
        <ele>912.43</ele>
        <time>2016-05-08T07:45:48Z</time>
      </trkpt>
      <trkpt lat="44.73566" lon="3.8581">
        <ele>910.99</ele>
        <time>2016-05-08T07:46:05Z</time>
      </trkpt>
      <trkpt lat="44.73561" lon="3.85812">
        <ele>910.51</ele>
        <time>2016-05-08T07:46:09Z</time>
      </trkpt>
      <trkpt lat="44.73554" lon="3.85815">
        <ele>913.39</ele>
        <time>2016-05-08T07:46:17Z</time>
      </trkpt>
      <trkpt lat="44.73551" lon="3.85818">
        <ele>910.51</ele>
        <time>2016-05-08T07:46:21Z</time>
      </trkpt>
      <trkpt lat="44.73549" lon="3.85819">
        <ele>906.66</ele>
        <time>2016-05-08T07:46:23Z</time>
      </trkpt>
      <trkpt lat="44.73549" lon="3.85819">
        <ele>910.51</ele>
        <time>2016-05-08T07:46:24Z</time>
      </trkpt>
      <trkpt lat="44.73545" lon="3.85821">
        <ele>910.51</ele>
        <time>2016-05-08T07:46:28Z</time>
      </trkpt>
      <trkpt lat="44.73543" lon="3.85822">
        <ele>912.43</ele>
        <time>2016-05-08T07:46:30Z</time>
      </trkpt>
      <trkpt lat="44.73538" lon="3.85822">
        <ele>909.54</ele>
        <time>2016-05-08T07:46:33Z</time>
      </trkpt>
      <trkpt lat="44.73535" lon="3.85822">
        <ele>910.51</ele>
        <time>2016-05-08T07:46:36Z</time>
      </trkpt>
      <trkpt lat="44.73525" lon="3.85831">
        <ele>911.95</ele>
        <time>2016-05-08T07:46:48Z</time>
      </trkpt>
      <trkpt lat="44.73523" lon="3.85831">
        <ele>911.47</ele>
        <time>2016-05-08T07:46:50Z</time>
      </trkpt>
      <trkpt lat="44.7352" lon="3.85832">
        <ele>909.54</ele>
        <time>2016-05-08T07:46:52Z</time>
      </trkpt>
      <trkpt lat="44.73519" lon="3.85833">
        <ele>909.06</ele>
        <time>2016-05-08T07:46:54Z</time>
      </trkpt>
      <trkpt lat="44.73514" lon="3.85832">
        <ele>912.43</ele>
        <time>2016-05-08T07:46:59Z</time>
      </trkpt>
      <trkpt lat="44.7351" lon="3.85828">
        <ele>915.31</ele>
        <time>2016-05-08T07:47:04Z</time>
      </trkpt>
      <trkpt lat="44.73509" lon="3.85825">
        <ele>912.91</ele>
        <time>2016-05-08T07:47:06Z</time>
      </trkpt>
      <trkpt lat="44.73507" lon="3.85822">
        <ele>916.75</ele>
        <time>2016-05-08T07:47:08Z</time>
      </trkpt>
      <trkpt lat="44.73498" lon="3.85802">
        <ele>916.27</ele>
        <time>2016-05-08T07:47:22Z</time>
      </trkpt>
      <trkpt lat="44.73497" lon="3.85798">
        <ele>914.35</ele>
        <time>2016-05-08T07:47:24Z</time>
      </trkpt>
      <trkpt lat="44.73489" lon="3.8578">
        <ele>919.16</ele>
        <time>2016-05-08T07:47:36Z</time>
      </trkpt>
      <trkpt lat="44.73489" lon="3.85779">
        <ele>916.75</ele>
        <time>2016-05-08T07:47:37Z</time>
      </trkpt>
      <trkpt lat="44.73486" lon="3.85774">
        <ele>914.35</ele>
        <time>2016-05-08T07:47:41Z</time>
      </trkpt>
      <trkpt lat="44.73477" lon="3.85753">
        <ele>913.87</ele>
        <time>2016-05-08T07:47:55Z</time>
      </trkpt>
      <trkpt lat="44.7347" lon="3.85739">
        <ele>915.31</ele>
        <time>2016-05-08T07:48:05Z</time>
      </trkpt>
      <trkpt lat="44.73469" lon="3.85738">
        <ele>911.95</ele>
        <time>2016-05-08T07:48:06Z</time>
      </trkpt>
      <trkpt lat="44.73465" lon="3.85734">
        <ele>912.43</ele>
        <time>2016-05-08T07:48:10Z</time>
      </trkpt>
      <trkpt lat="44.73462" lon="3.8573">
        <ele>913.87</ele>
        <time>2016-05-08T07:48:13Z</time>
      </trkpt>
      <trkpt lat="44.73455" lon="3.85724">
        <ele>912.91</ele>
        <time>2016-05-08T07:48:18Z</time>
      </trkpt>
      <trkpt lat="44.73446" lon="3.85716">
        <ele>916.75</ele>
        <time>2016-05-08T07:48:25Z</time>
      </trkpt>
      <trkpt lat="44.73445" lon="3.85716">
        <ele>916.75</ele>
        <time>2016-05-08T07:48:26Z</time>
      </trkpt>
      <trkpt lat="44.73442" lon="3.85715">
        <ele>914.83</ele>
        <time>2016-05-08T07:48:28Z</time>
      </trkpt>
      <trkpt lat="44.73435" lon="3.85711">
        <ele>912.43</ele>
        <time>2016-05-08T07:48:33Z</time>
      </trkpt>
      <trkpt lat="44.73431" lon="3.85714">
        <ele>912.91</ele>
        <time>2016-05-08T07:48:38Z</time>
      </trkpt>
      <trkpt lat="44.73427" lon="3.85713">
        <ele>912.43</ele>
        <time>2016-05-08T07:48:41Z</time>
      </trkpt>
      <trkpt lat="44.73425" lon="3.85708">
        <ele>912.43</ele>
        <time>2016-05-08T07:48:57Z</time>
      </trkpt>
      <trkpt lat="44.73425" lon="3.85709">
        <ele>912.91</ele>
        <time>2016-05-08T07:49:37Z</time>
      </trkpt>
      <trkpt lat="44.73425" lon="3.85709">
        <ele>912.43</ele>
        <time>2016-05-08T07:50:26Z</time>
      </trkpt>
      <trkpt lat="44.73426" lon="3.85709">
        <ele>913.39</ele>
        <time>2016-05-08T07:50:48Z</time>
      </trkpt>
      <trkpt lat="44.73424" lon="3.85701">
        <ele>911.95</ele>
        <time>2016-05-08T07:50:57Z</time>
      </trkpt>
      <trkpt lat="44.73403" lon="3.85702">
        <ele>911.47</ele>
        <time>2016-05-08T07:51:13Z</time>
      </trkpt>
      <trkpt lat="44.73398" lon="3.85703">
        <ele>910.99</ele>
        <time>2016-05-08T07:51:17Z</time>
      </trkpt>
      <trkpt lat="44.73381" lon="3.85712">
        <ele>912.91</ele>
        <time>2016-05-08T07:51:31Z</time>
      </trkpt>
      <trkpt lat="44.73371" lon="3.85719">
        <ele>911.95</ele>
        <time>2016-05-08T07:51:42Z</time>
      </trkpt>
      <trkpt lat="44.73366" lon="3.85722">
        <ele>911.95</ele>
        <time>2016-05-08T07:51:46Z</time>
      </trkpt>
      <trkpt lat="44.73363" lon="3.85724">
        <ele>911.47</ele>
        <time>2016-05-08T07:51:48Z</time>
      </trkpt>
      <trkpt lat="44.73351" lon="3.85742">
        <ele>911.47</ele>
        <time>2016-05-08T07:51:59Z</time>
      </trkpt>
      <trkpt lat="44.73339" lon="3.85759">
        <ele>910.51</ele>
        <time>2016-05-08T07:52:11Z</time>
      </trkpt>
      <trkpt lat="44.73325" lon="3.85777">
        <ele>910.51</ele>
        <time>2016-05-08T07:52:25Z</time>
      </trkpt>
      <trkpt lat="44.73313" lon="3.85794">
        <ele>910.99</ele>
        <time>2016-05-08T07:52:38Z</time>
      </trkpt>
      <trkpt lat="44.73301" lon="3.85805">
        <ele>911.47</ele>
        <time>2016-05-08T07:52:50Z</time>
      </trkpt>
      <trkpt lat="44.73297" lon="3.85809">
        <ele>911.95</ele>
        <time>2016-05-08T07:52:54Z</time>
      </trkpt>
      <trkpt lat="44.73295" lon="3.85813">
        <ele>914.83</ele>
        <time>2016-05-08T07:52:57Z</time>
      </trkpt>
      <trkpt lat="44.7329" lon="3.85818">
        <ele>911.47</ele>
        <time>2016-05-08T07:53:04Z</time>
      </trkpt>
      <trkpt lat="44.73288" lon="3.85819">
        <ele>911.47</ele>
        <time>2016-05-08T07:53:05Z</time>
      </trkpt>
      <trkpt lat="44.73273" lon="3.85827">
        <ele>912.43</ele>
        <time>2016-05-08T07:53:19Z</time>
      </trkpt>
      <trkpt lat="44.7325" lon="3.85831">
        <ele>912.43</ele>
        <time>2016-05-08T07:53:36Z</time>
      </trkpt>
      <trkpt lat="44.73248" lon="3.8583">
        <ele>912.91</ele>
        <time>2016-05-08T07:53:37Z</time>
      </trkpt>
      <trkpt lat="44.73238" lon="3.85831">
        <ele>911.95</ele>
        <time>2016-05-08T07:53:43Z</time>
      </trkpt>
      <trkpt lat="44.73233" lon="3.85837">
        <ele>911.47</ele>
        <time>2016-05-08T07:53:45Z</time>
      </trkpt>
      <trkpt lat="44.7322" lon="3.85837">
        <ele>912.43</ele>
        <time>2016-05-08T07:53:58Z</time>
      </trkpt>
      <trkpt lat="44.73208" lon="3.85826">
        <ele>912.91</ele>
        <time>2016-05-08T07:54:12Z</time>
      </trkpt>
      <trkpt lat="44.73205" lon="3.85822">
        <ele>914.35</ele>
        <time>2016-05-08T07:54:23Z</time>
      </trkpt>
      <trkpt lat="44.73205" lon="3.85821">
        <ele>914.83</ele>
        <time>2016-05-08T07:54:24Z</time>
      </trkpt>
      <trkpt lat="44.73205" lon="3.8582">
        <ele>912.91</ele>
        <time>2016-05-08T07:54:37Z</time>
      </trkpt>
      <trkpt lat="44.73206" lon="3.85821">
        <ele>914.83</ele>
        <time>2016-05-08T07:54:40Z</time>
      </trkpt>
      <trkpt lat="44.73207" lon="3.85825">
        <ele>913.87</ele>
        <time>2016-05-08T07:54:58Z</time>
      </trkpt>
      <trkpt lat="44.7321" lon="3.85823">
        <ele>912.91</ele>
        <time>2016-05-08T07:55:03Z</time>
      </trkpt>
      <trkpt lat="44.73211" lon="3.85821">
        <ele>914.35</ele>
        <time>2016-05-08T07:55:05Z</time>
      </trkpt>
      <trkpt lat="44.73216" lon="3.85809">
        <ele>914.83</ele>
        <time>2016-05-08T07:55:14Z</time>
      </trkpt>
      <trkpt lat="44.73222" lon="3.85794">
        <ele>913.87</ele>
        <time>2016-05-08T07:55:25Z</time>
      </trkpt>
      <trkpt lat="44.73224" lon="3.85789">
        <ele>914.35</ele>
        <time>2016-05-08T07:55:28Z</time>
      </trkpt>
      <trkpt lat="44.73234" lon="3.8577">
        <ele>915.31</ele>
        <time>2016-05-08T07:55:43Z</time>
      </trkpt>
      <trkpt lat="44.73238" lon="3.85764">
        <ele>915.79</ele>
        <time>2016-05-08T07:55:49Z</time>
      </trkpt>
      <trkpt lat="44.73243" lon="3.8575">
        <ele>918.2</ele>
        <time>2016-05-08T07:56:00Z</time>
      </trkpt>
      <trkpt lat="44.73251" lon="3.85734">
        <ele>918.2</ele>
        <time>2016-05-08T07:56:13Z</time>
      </trkpt>
      <trkpt lat="44.73253" lon="3.85731">
        <ele>918.2</ele>
        <time>2016-05-08T07:56:16Z</time>
      </trkpt>
      <trkpt lat="44.73256" lon="3.85728">
        <ele>917.72</ele>
        <time>2016-05-08T07:56:19Z</time>
      </trkpt>
      <trkpt lat="44.73265" lon="3.85716">
        <ele>917.24</ele>
        <time>2016-05-08T07:56:32Z</time>
      </trkpt>
      <trkpt lat="44.73267" lon="3.85715">
        <ele>916.75</ele>
        <time>2016-05-08T07:56:43Z</time>
      </trkpt>
      <trkpt lat="44.73267" lon="3.85718">
        <ele>917.72</ele>
        <time>2016-05-08T07:57:07Z</time>
      </trkpt>
      <trkpt lat="44.73268" lon="3.85712">
        <ele>917.72</ele>
        <time>2016-05-08T07:57:21Z</time>
      </trkpt>
      <trkpt lat="44.73242" lon="3.8573">
        <ele>917.72</ele>
        <time>2016-05-08T07:57:47Z</time>
      </trkpt>
      <trkpt lat="44.73232" lon="3.85738">
        <ele>917.24</ele>
        <time>2016-05-08T07:57:57Z</time>
      </trkpt>
      <trkpt lat="44.73232" lon="3.85738">
        <ele>915.31</ele>
        <time>2016-05-08T07:57:59Z</time>
      </trkpt>
      <trkpt lat="44.73263" lon="3.857">
        <ele>917.24</ele>
        <time>2016-05-08T07:59:09Z</time>
      </trkpt>
      <trkpt lat="44.73267" lon="3.85696">
        <ele>917.24</ele>
        <time>2016-05-08T07:59:16Z</time>
      </trkpt>
      <trkpt lat="44.73264" lon="3.85694">
        <ele>916.75</ele>
        <time>2016-05-08T07:59:27Z</time>
      </trkpt>
      <trkpt lat="44.73265" lon="3.8569">
        <ele>917.24</ele>
        <time>2016-05-08T07:59:34Z</time>
      </trkpt>
      <trkpt lat="44.73272" lon="3.85681">
        <ele>917.24</ele>
        <time>2016-05-08T07:59:44Z</time>
      </trkpt>
      <trkpt lat="44.73276" lon="3.85675">
        <ele>916.75</ele>
        <time>2016-05-08T07:59:52Z</time>
      </trkpt>
      <trkpt lat="44.73279" lon="3.85673">
        <ele>917.72</ele>
        <time>2016-05-08T08:00:01Z</time>
      </trkpt>
      <trkpt lat="44.73287" lon="3.85666">
        <ele>917.72</ele>
        <time>2016-05-08T08:00:15Z</time>
      </trkpt>
      <trkpt lat="44.73289" lon="3.85668">
        <ele>917.72</ele>
        <time>2016-05-08T08:00:46Z</time>
      </trkpt>
      <trkpt lat="44.73288" lon="3.85667">
        <ele>916.75</ele>
        <time>2016-05-08T08:01:39Z</time>
      </trkpt>
    </trkseg>
  </trk>
</gpx>